Indian Island, Washington
Current Conditions -  °F | °C
As of 12:56 AM on Thursday 18 Dec 2014 (Local Time) from KNUW Reporting Station
Overcast Overcast  
Wind Chill: 44°   Ceiling: 1100
Heat Index: 47°   Visibility: 10mi
Dew Point: 43°   Wind: 7mph
Humidity: 86%   Direction: 110°ESE
Pressure: 29.92"   Gusts: NA
Location:  48.0545°N, 122.706°W
Report Text: KNUW 180856Z 11006KT 10SM SCT007 BKN011 OVC025 08/06 A2992 RMK AO2 RAE24 SLP134 P0000 60001 T00830061 51002 $
Loading
Personal Weather Stations






























Interactive Weather Map New forecast layout! Learn more

10-Day Weather Forecast

Advertisements
Track Severe Weather on mobile